Robijn — PBEJ — position and weather

sailwx.info

Track history (hours):
 
Tides and Currents Weather Stations Pressure Air Temp Water Temp Dewpoint Dewpoint Depression Visibility Wind Speed Wind Dir Waves Ship Positions

Robijn

Last reported at 2015-Jul-03 02:34 UTC. Time now 2015-Jul-03 02:35 UTC.
Position N 49°38' W 000°02'.

Length 90 m; draft 5.4 m.

Type: Cargo ship. MMSI: 245909000.

Date/timePositionNaut miles runAvg speedWind from/ knotsBaromVisibWave heightAir tempDewpointWater temp
2015-Jul-03 02:34N 49°38' W 000°02'9 9.0
2015-Jul-03 01:33N 49°30' W 000°06'1010.3
2015-Jul-03 00:34N 49°26' E 000°09'1010.5
2015-Jul-02 23:34N 49°27' E 000°25'7 7.2
2015-Jul-02 22:33N 49°26' E 000°36'8 6.3
2015-Jul-02 21:16N 49°31' E 000°45'5 7.4
2015-Jul-02 20:32N 49°26' E 000°49'5 4.9
2015-Jul-02 19:30N 49°28' E 000°56'4 0.1
2015-Jun-30 23:06N 49°25' E 000°52'3 6.2
2015-Jun-30 22:32N 49°28' E 000°49'6 6.4
2015-Jun-30 21:33N 49°27' E 000°39'9 9.4
2015-Jun-30 20:34N 49°27' E 000°25'1111.4
2015-Jun-30 19:34N 49°26' E 000°07'1110.7
2015-Jun-30 18:33N 49°30' W 000°08'1010.0
2015-Jun-30 17:34N 49°40' W 000°10'1111.0
2015-Jun-30 16:34N 49°51' W 000°09'3611.1
2015-Jun-30 13:16N 50°27' W 000°01'1012.2
2015-Jun-30 12:28N 50°31' E 000°13'1011.5
2015-Jun-30 11:33N 50°36' E 000°28'1110.8
2015-Jun-30 10:33N 50°41' E 000°42'1010.3
2015-Jun-30 09:34N 50°48' E 000°55'1010.0
2015-Jun-30 08:34N 50°54' E 001°07'1110.7
2015-Jun-30 07:34N 51°01' E 001°20'1312.8
2015-Jun-30 06:33N 51°09' E 001°36'1313.1
2015-Jun-30 05:34N 51°19' E 001°49'1212.2
2015-Jun-30 04:34N 51°29' E 002°00'1111.1
2015-Jun-30 03:34N 51°38' E 002°11'1010.4
2015-Jun-30 02:33N 51°46' E 002°22'10 9.7
2015-Jun-30 01:34N 51°53' E 002°32'9 9.3
2015-Jun-30 00:34N 52°00' E 002°42'9 9.3
2015-Jun-29 23:34N 52°07' E 002°52'10 9.8
2015-Jun-29 22:34N 52°15' E 003°02'1110.7
2015-Jun-29 21:33N 52°24' E 003°12'1211.5
2015-Jun-29 20:33N 52°32' E 003°25'1211.9
2015-Jun-29 19:33N 52°41' E 003°38'1212.0
2015-Jun-29 18:33N 52°50' E 003°50'1111.4
2015-Jun-29 17:33N 52°58' E 004°04'1110.6
2015-Jun-29 16:33N 53°06' E 004°16'10 9.6
2015-Jun-29 15:33N 53°13' E 004°26'9 9.3
2015-Jun-29 14:33N 53°22' E 004°33'9 9.4
2015-Jun-29 13:33N 53°29' E 004°43'1110.6
2015-Jun-29 12:34N 53°33' E 004°60'1211.5
2015-Jun-29 11:34N 53°37' E 005°18'1211.7
2015-Jun-29 10:34N 53°40' E 005°37'1111.4
2015-Jun-29 09:34N 53°44' E 005°55'1110.9
2015-Jun-29 08:33N 53°47' E 006°13'1110.1
2015-Jun-29 07:29N 53°50' E 006°30'28 9.4
2015-Jun-29 04:29N 53°57' E 007°16'1110.1
2015-Jun-29 03:24N 54°00' E 007°34'910.8
2015-Jun-29 02:34N 54°02' E 007°50'1111.3
2015-Jun-29 01:33N 54°01' E 008°09'1212.5
2015-Jun-29 00:33N 53°59' E 008°30'1212.1
2015-Jun-28 23:33N 53°51' E 008°46'1010.0
2015-Jun-28 22:33N 53°52' E 009°03'5 5.1
2015-Jun-28 21:33N 53°54' E 009°10'7 6.9
2015-Jun-28 20:34N 53°60' E 009°17'9 8.7
2015-Jun-28 19:33N 54°08' E 009°20'31 6.2
2015-Jun-28 14:33N 54°22' E 010°08'0 0.1
2015-Jun-28 13:34N 54°22' E 010°08'1 1.3
2015-Jun-28 12:33N 54°22' E 010°10'1 0.7
2015-Jun-28 11:34N 54°23' E 010°11'1010.0
2015-Jun-28 10:34N 54°31' E 010°21'1110.5
2015-Jun-28 09:34N 54°35' E 010°38'1110.6
2015-Jun-28 08:33N 54°36' E 010°56'1110.7
2015-Jun-28 07:34N 54°36' E 011°15'1010.1
2015-Jun-28 06:33N 54°32' E 011°30'1010.5
2015-Jun-28 05:34N 54°29' E 011°48'1110.5
2015-Jun-28 04:34N 54°27' E 012°05'8410.4
2015-Jun-27 20:26N 55°10' E 014°11'2010.8
2015-Jun-27 18:32N 55°25' E 014°35'1110.9
2015-Jun-27 17:33N 55°31' E 014°51'1111.1
2015-Jun-27 16:33N 55°37' E 015°07'38410.5
2015-Jun-26 04:08N 59°39' E 024°24'610.4
2015-Jun-26 03:34N 59°41' E 024°35'1110.3
2015-Jun-26 02:32N 59°45' E 024°54'43 9.8
2015-Jun-25 22:05N 60°04' E 026°12'610.8
2015-Jun-25 21:34N 60°09' E 026°18'1110.5
2015-Jun-25 20:34N 60°17' E 026°31'1110.6
2015-Jun-25 19:34N 60°23' E 026°48'7 7.1
2015-Jun-25 18:31N 60°29' E 026°57'0 0.0
2015-Jun-25 17:31N 60°29' E 026°57'0 0.0
2015-Jun-25 16:31N 60°29' E 026°57'0 0.0
2015-Jun-25 15:31N 60°29' E 026°57'0 0.0
2015-Jun-25 14:31N 60°29' E 026°57'0 0.0
2015-Jun-25 13:31N 60°29' E 026°57'0 0.0
2015-Jun-25 12:31N 60°29' E 026°57'0 0.0
2015-Jun-25 11:31N 60°29' E 026°57'0 0.0
2015-Jun-25 10:31N 60°29' E 026°57'0 0.0
2015-Jun-25 09:31N 60°29' E 026°57'0 0.0
2015-Jun-25 08:31N 60°29' E 026°57'0 0.0
2015-Jun-25 07:31N 60°29' E 026°57'0 0.0
2015-Jun-25 06:31N 60°29' E 026°57'0 0.0
2015-Jun-25 05:31N 60°29' E 026°57'5 4.9
2015-Jun-25 04:33N 60°25' E 026°55'1111.2
2015-Jun-25 03:33N 60°19' E 026°35'1111.1
2015-Jun-25 02:33N 60°10' E 026°21'6811.2
2015-Jun-24 20:27N 59°49' E 024°12'1011.4
2015-Jun-24 19:33N 59°46' E 023°52'1111.5
2015-Jun-24 18:33N 59°43' E 023°30'1111.4
2015-Jun-24 17:33N 59°41' E 023°08'3411.3
2015-Jun-24 14:33N 59°38' E 022°02'1111.2
2015-Jun-24 13:34N 59°38' E 021°39'1111.1
2015-Jun-24 12:33N 59°39' E 021°17'  
Track history (hours):
 
Tides and Currents Weather Stations Pressure Air Temp Water Temp Dewpoint Dewpoint Depression Visibility Wind Speed Wind Dir Waves Ship Positions

Robijn

Last reported at 2015-Jul-03 02:34 UTC. Time now 2015-Jul-03 02:35 UTC.
Position N 49°38' W 000°02'.

Length 90 m; draft 5.4 m.

Type: Cargo ship. MMSI: 245909000.

Date/timePositionNaut miles runAvg speedWind from/ knotsBaromVisibWave heightAir tempDewpointWater temp
2015-Jul-03 02:34N 49°38' W 000°02'9 9.0
2015-Jul-03 01:33N 49°30' W 000°06'1010.3
2015-Jul-03 00:34N 49°26' E 000°09'1010.5
2015-Jul-02 23:34N 49°27' E 000°25'7 7.2
2015-Jul-02 22:33N 49°26' E 000°36'8 6.3
2015-Jul-02 21:16N 49°31' E 000°45'5 7.4
2015-Jul-02 20:32N 49°26' E 000°49'5 4.9
2015-Jul-02 19:30N 49°28' E 000°56'4 0.1
2015-Jun-30 23:06N 49°25' E 000°52'3 6.2
2015-Jun-30 22:32N 49°28' E 000°49'6 6.4
2015-Jun-30 21:33N 49°27' E 000°39'9 9.4
2015-Jun-30 20:34N 49°27' E 000°25'1111.4
2015-Jun-30 19:34N 49°26' E 000°07'1110.7
2015-Jun-30 18:33N 49°30' W 000°08'1010.0
2015-Jun-30 17:34N 49°40' W 000°10'1111.0
2015-Jun-30 16:34N 49°51' W 000°09'3611.1
2015-Jun-30 13:16N 50°27' W 000°01'1012.2
2015-Jun-30 12:28N 50°31' E 000°13'1011.5
2015-Jun-30 11:33N 50°36' E 000°28'1110.8
2015-Jun-30 10:33N 50°41' E 000°42'1010.3
2015-Jun-30 09:34N 50°48' E 000°55'1010.0
2015-Jun-30 08:34N 50°54' E 001°07'1110.7
2015-Jun-30 07:34N 51°01' E 001°20'1312.8
2015-Jun-30 06:33N 51°09' E 001°36'1313.1
2015-Jun-30 05:34N 51°19' E 001°49'1212.2
2015-Jun-30 04:34N 51°29' E 002°00'1111.1
2015-Jun-30 03:34N 51°38' E 002°11'1010.4
2015-Jun-30 02:33N 51°46' E 002°22'10 9.7
2015-Jun-30 01:34N 51°53' E 002°32'9 9.3
2015-Jun-30 00:34N 52°00' E 002°42'9 9.3
2015-Jun-29 23:34N 52°07' E 002°52'10 9.8
2015-Jun-29 22:34N 52°15' E 003°02'1110.7
2015-Jun-29 21:33N 52°24' E 003°12'1211.5
2015-Jun-29 20:33N 52°32' E 003°25'1211.9
2015-Jun-29 19:33N 52°41' E 003°38'1212.0
2015-Jun-29 18:33N 52°50' E 003°50'1111.4
2015-Jun-29 17:33N 52°58' E 004°04'1110.6
2015-Jun-29 16:33N 53°06' E 004°16'10 9.6
2015-Jun-29 15:33N 53°13' E 004°26'9 9.3
2015-Jun-29 14:33N 53°22' E 004°33'9 9.4
2015-Jun-29 13:33N 53°29' E 004°43'1110.6
2015-Jun-29 12:34N 53°33' E 004°60'1211.5
2015-Jun-29 11:34N 53°37' E 005°18'1211.7
2015-Jun-29 10:34N 53°40' E 005°37'1111.4
2015-Jun-29 09:34N 53°44' E 005°55'1110.9
2015-Jun-29 08:33N 53°47' E 006°13'1110.1
2015-Jun-29 07:29N 53°50' E 006°30'28 9.4
2015-Jun-29 04:29N 53°57' E 007°16'1110.1
2015-Jun-29 03:24N 54°00' E 007°34'910.8
2015-Jun-29 02:34N 54°02' E 007°50'1111.3
2015-Jun-29 01:33N 54°01' E 008°09'1212.5
2015-Jun-29 00:33N 53°59' E 008°30'1212.1
2015-Jun-28 23:33N 53°51' E 008°46'1010.0
2015-Jun-28 22:33N 53°52' E 009°03'5 5.1
2015-Jun-28 21:33N 53°54' E 009°10'7 6.9
2015-Jun-28 20:34N 53°60' E 009°17'9 8.7
2015-Jun-28 19:33N 54°08' E 009°20'31 6.2
2015-Jun-28 14:33N 54°22' E 010°08'0 0.1
2015-Jun-28 13:34N 54°22' E 010°08'1 1.3
2015-Jun-28 12:33N 54°22' E 010°10'1 0.7
2015-Jun-28 11:34N 54°23' E 010°11'1010.0
2015-Jun-28 10:34N 54°31' E 010°21'1110.5
2015-Jun-28 09:34N 54°35' E 010°38'1110.6
2015-Jun-28 08:33N 54°36' E 010°56'1110.7
2015-Jun-28 07:34N 54°36' E 011°15'1010.1
2015-Jun-28 06:33N 54°32' E 011°30'1010.5
2015-Jun-28 05:34N 54°29' E 011°48'1110.5
2015-Jun-28 04:34N 54°27' E 012°05'8410.4
2015-Jun-27 20:26N 55°10' E 014°11'2010.8
2015-Jun-27 18:32N 55°25' E 014°35'1110.9
2015-Jun-27 17:33N 55°31' E 014°51'1111.1
2015-Jun-27 16:33N 55°37' E 015°07'38410.5
2015-Jun-26 04:08N 59°39' E 024°24'610.4
2015-Jun-26 03:34N 59°41' E 024°35'1110.3
2015-Jun-26 02:32N 59°45' E 024°54'43 9.8
2015-Jun-25 22:05N 60°04' E 026°12'610.8
2015-Jun-25 21:34N 60°09' E 026°18'1110.5
2015-Jun-25 20:34N 60°17' E 026°31'1110.6
2015-Jun-25 19:34N 60°23' E 026°48'7 7.1
2015-Jun-25 18:31N 60°29' E 026°57'0 0.0
2015-Jun-25 17:31N 60°29' E 026°57'0 0.0
2015-Jun-25 16:31N 60°29' E 026°57'0 0.0
2015-Jun-25 15:31N 60°29' E 026°57'0 0.0
2015-Jun-25 14:31N 60°29' E 026°57'0 0.0
2015-Jun-25 13:31N 60°29' E 026°57'0 0.0
2015-Jun-25 12:31N 60°29' E 026°57'0 0.0
2015-Jun-25 11:31N 60°29' E 026°57'0 0.0
2015-Jun-25 10:31N 60°29' E 026°57'0 0.0
2015-Jun-25 09:31N 60°29' E 026°57'0 0.0
2015-Jun-25 08:31N 60°29' E 026°57'0 0.0
2015-Jun-25 07:31N 60°29' E 026°57'0 0.0
2015-Jun-25 06:31N 60°29' E 026°57'0 0.0
2015-Jun-25 05:31N 60°29' E 026°57'5 4.9
2015-Jun-25 04:33N 60°25' E 026°55'1111.2
2015-Jun-25 03:33N 60°19' E 026°35'1111.1
2015-Jun-25 02:33N 60°10' E 026°21'6811.2
2015-Jun-24 20:27N 59°49' E 024°12'1011.4
2015-Jun-24 19:33N 59°46' E 023°52'1111.5
2015-Jun-24 18:33N 59°43' E 023°30'1111.4
2015-Jun-24 17:33N 59°41' E 023°08'3411.3
2015-Jun-24 14:33N 59°38' E 022°02'1111.2
2015-Jun-24 13:34N 59°38' E 021°39'1111.1
2015-Jun-24 12:33N 59°39' E 021°17'  

Dump ship's entire track history